createdAt,value
2023-09-22T00:00:44.561Z,16.09
2023-09-22T00:03:12.063Z,16.16
2023-09-22T00:05:38.990Z,15.94
2023-09-22T00:08:06.382Z,15.91
2023-09-22T00:10:34.221Z,16.15
2023-09-22T00:13:01.434Z,15.85
2023-09-22T00:15:28.624Z,16.10
2023-09-22T00:17:55.611Z,15.62
2023-09-22T00:20:23.567Z,15.98
2023-09-22T00:22:50.493Z,15.86
2023-09-22T00:25:17.497Z,15.86
2023-09-22T00:27:44.930Z,15.86
2023-09-22T00:30:12.201Z,15.45
2023-09-22T00:32:40.626Z,15.68
2023-09-22T00:35:12.377Z,15.77
2023-09-22T00:37:41.455Z,15.51
2023-09-22T00:40:14.275Z,15.90
2023-09-22T00:42:41.396Z,15.58
2023-09-22T00:45:08.655Z,15.82
2023-09-22T00:47:36.297Z,15.89
2023-09-22T00:50:03.547Z,15.87
2023-09-22T00:52:31.632Z,15.45
2023-09-22T00:54:59.533Z,15.40
2023-09-22T00:57:26.852Z,15.88
2023-09-22T00:59:55.690Z,15.52
2023-09-22T01:02:23.553Z,14.90
2023-09-22T01:04:51.105Z,15.75
2023-09-22T01:07:18.500Z,15.90
2023-09-22T01:09:45.920Z,15.67
2023-09-22T01:12:14.404Z,15.35
2023-09-22T01:14:41.677Z,15.44
2023-09-22T01:17:08.963Z,15.32
2023-09-22T01:19:37.019Z,15.80
2023-09-22T01:22:06.500Z,15.70
2023-09-22T01:24:33.493Z,15.74
2023-09-22T01:27:00.363Z,15.84
2023-09-22T01:29:27.337Z,15.83
2023-09-22T01:31:54.466Z,15.80
2023-09-22T01:34:21.854Z,15.57
2023-09-22T01:36:48.831Z,15.61
2023-09-22T01:39:17.683Z,15.87
2023-09-22T01:41:44.976Z,15.86
2023-09-22T01:44:12.276Z,15.62
2023-09-22T01:46:38.999Z,15.76
2023-09-22T01:49:06.154Z,15.73
2023-09-22T01:51:33.030Z,14.25
2023-09-22T01:54:01.231Z,15.75
2023-09-22T01:56:28.305Z,15.70
2023-09-22T01:58:55.199Z,15.71
2023-09-22T02:01:22.234Z,15.69
2023-09-22T02:03:49.377Z,15.71
2023-09-22T02:06:16.434Z,15.76
2023-09-22T02:08:44.476Z,14.69
2023-09-22T02:11:14.580Z,15.32
2023-09-22T02:13:41.814Z,15.46
2023-09-22T02:16:09.156Z,15.50
2023-09-22T02:18:36.994Z,15.52
2023-09-22T02:21:07.327Z,14.92
2023-09-22T02:23:34.436Z,15.52
2023-09-22T02:26:08.339Z,15.55
2023-09-22T02:28:35.899Z,15.60
2023-09-22T02:31:03.540Z,15.13
2023-09-22T02:33:30.926Z,15.57
2023-09-22T02:35:57.984Z,15.51
2023-09-22T02:38:26.212Z,15.37
2023-09-22T02:40:53.034Z,15.49
2023-09-22T02:43:19.920Z,15.56
2023-09-22T02:45:46.885Z,15.19
2023-09-22T02:48:14.455Z,15.44
2023-09-22T02:50:41.638Z,15.68
2023-09-22T02:53:08.610Z,14.85
2023-09-22T02:55:38.382Z,15.11
2023-09-22T02:58:05.469Z,15.30
2023-09-22T03:00:32.735Z,15.53
2023-09-22T03:02:59.872Z,15.30
2023-09-22T03:05:26.995Z,15.38
2023-09-22T03:07:56.626Z,14.83
2023-09-22T03:10:24.631Z,15.45
2023-09-22T03:12:55.363Z,15.12
2023-09-22T03:15:24.370Z,15.48
2023-09-22T03:17:52.262Z,15.24
2023-09-22T03:20:19.199Z,15.38
2023-09-22T03:22:47.213Z,15.50
2023-09-22T03:25:15.545Z,15.53
2023-09-22T03:27:44.007Z,14.84
2023-09-22T03:30:13.439Z,15.57
2023-09-22T03:32:42.764Z,15.21
2023-09-22T03:35:13.154Z,15.31
2023-09-22T03:37:41.598Z,15.44
2023-09-22T03:40:15.019Z,15.52
2023-09-22T03:42:46.629Z,15.59
2023-09-22T03:45:14.186Z,15.19
2023-09-22T03:47:42.435Z,15.58
2023-09-22T03:50:10.756Z,15.55
2023-09-22T03:52:38.358Z,15.57
2023-09-22T03:55:06.715Z,15.12
2023-09-22T03:57:34.158Z,15.54
2023-09-22T04:00:00.972Z,15.59
2023-09-22T04:02:29.319Z,15.61
2023-09-22T04:04:57.997Z,15.18
2023-09-22T04:07:25.628Z,15.58
2023-09-22T04:09:53.764Z,15.26
2023-09-22T04:12:20.866Z,15.55
2023-09-22T04:14:48.184Z,15.55
2023-09-22T04:17:15.245Z,15.39
2023-09-22T04:19:43.264Z,15.34
2023-09-22T04:22:12.565Z,15.47
2023-09-22T04:24:48.628Z,15.06
2023-09-22T04:27:15.939Z,15.49
2023-09-22T04:29:42.738Z,15.58
2023-09-22T04:32:09.661Z,15.60
2023-09-22T04:34:36.834Z,15.64
2023-09-22T04:37:09.887Z,14.26
2023-09-22T04:39:36.828Z,15.42
2023-09-22T04:42:03.780Z,15.45
2023-09-22T04:44:31.470Z,15.73
2023-09-22T04:46:58.869Z,14.54
2023-09-22T04:49:25.963Z,15.65
2023-09-22T04:51:53.588Z,15.33
2023-09-22T04:54:21.248Z,15.67
2023-09-22T04:56:48.897Z,15.56
2023-09-22T04:59:18.916Z,15.61
2023-09-22T05:01:45.970Z,15.45
2023-09-22T05:04:13.271Z,15.55
2023-09-22T05:06:40.284Z,15.53
2023-09-22T05:09:08.493Z,15.68
2023-09-22T05:11:36.116Z,15.52
2023-09-22T05:14:05.356Z,15.67
2023-09-22T05:16:32.797Z,15.74
2023-09-22T05:19:03.653Z,15.82
2023-09-22T05:21:30.949Z,15.77
2023-09-22T05:23:57.792Z,15.52
2023-09-22T05:26:24.866Z,15.76
2023-09-22T05:28:52.015Z,15.73
2023-09-22T05:31:20.518Z,16.01
2023-09-22T05:33:47.839Z,15.91
2023-09-22T05:36:14.944Z,15.86
2023-09-22T05:38:42.058Z,16.03
2023-09-22T05:41:10.425Z,16.10
2023-09-22T05:43:37.605Z,16.20
2023-09-22T05:46:05.122Z,16.19
2023-09-22T05:48:32.246Z,16.25
2023-09-22T05:51:00.963Z,16.26
2023-09-22T05:53:29.575Z,16.42
2023-09-22T05:56:07.804Z,16.47
2023-09-22T05:58:39.156Z,16.49
2023-09-22T06:01:11.371Z,16.55
2023-09-22T06:03:40.529Z,16.69
2023-09-22T06:06:09.896Z,16.77
2023-09-22T06:08:38.050Z,16.55
2023-09-22T06:11:09.347Z,15.96
2023-09-22T06:13:36.656Z,16.65
2023-09-22T06:16:04.274Z,16.90
2023-09-22T06:18:32.645Z,16.82
2023-09-22T06:21:01.249Z,16.70
2023-09-22T06:23:28.942Z,16.87
2023-09-22T06:26:02.165Z,16.99
2023-09-22T06:28:29.194Z,17.39
2023-09-22T06:31:00.562Z,17.16
2023-09-22T06:33:28.516Z,17.65
2023-09-22T06:36:06.908Z,17.39
2023-09-22T06:38:42.092Z,17.87
2023-09-22T06:41:09.031Z,17.28
2023-09-22T06:43:37.628Z,18.11
2023-09-22T06:46:22.601Z,17.87
2023-09-22T06:48:49.356Z,18.42
2023-09-22T06:51:20.141Z,18.48
2023-09-22T06:53:49.472Z,18.42
2023-09-22T06:56:19.468Z,18.37
2023-09-22T06:58:49.010Z,18.54
2023-09-22T07:01:18.514Z,18.76
2023-09-22T07:03:46.881Z,18.89
2023-09-22T07:06:18.171Z,18.87
2023-09-22T07:08:47.974Z,19.09
2023-09-22T07:11:15.502Z,19.16
2023-09-22T07:13:42.961Z,19.11
2023-09-22T07:16:11.225Z,19.38
2023-09-22T07:18:39.026Z,19.30
2023-09-22T07:21:09.457Z,19.56
2023-09-22T07:23:36.436Z,19.38
2023-09-22T07:26:12.740Z,19.70
2023-09-22T07:28:40.771Z,19.68
2023-09-22T07:31:14.880Z,19.85
2023-09-22T07:33:42.536Z,20.01
2023-09-22T07:36:09.529Z,20.11
2023-09-22T07:38:37.267Z,20.26
2023-09-22T07:41:04.484Z,20.42
2023-09-22T07:43:31.507Z,20.37
2023-09-22T07:45:59.437Z,20.30
2023-09-22T07:48:28.323Z,20.48
2023-09-22T07:50:55.199Z,19.71
2023-09-22T07:53:22.422Z,20.89
2023-09-22T07:55:49.412Z,21.14
2023-09-22T07:58:16.523Z,21.31
2023-09-22T08:00:48.117Z,21.36
2023-09-22T08:03:15.412Z,21.42
2023-09-22T08:05:42.548Z,21.52
2023-09-22T08:08:11.685Z,21.24
2023-09-22T08:10:42.431Z,21.55
2023-09-22T08:13:09.392Z,21.76
2023-09-22T08:15:38.730Z,21.81
2023-09-22T08:18:07.324Z,21.72
2023-09-22T08:20:35.848Z,21.72
2023-09-22T08:23:04.132Z,21.62
2023-09-22T08:25:31.100Z,22.14
2023-09-22T08:28:00.017Z,22.18
2023-09-22T08:30:27.508Z,22.13
2023-09-22T08:32:55.300Z,22.00
2023-09-22T08:35:22.874Z,22.26
2023-09-22T08:37:50.573Z,22.06
2023-09-22T08:40:18.925Z,22.04
2023-09-22T08:42:49.271Z,22.01
2023-09-22T08:45:16.840Z,22.84
2023-09-22T08:47:47.267Z,22.99
2023-09-22T08:50:16.199Z,23.10
2023-09-22T08:52:45.396Z,23.22
2023-09-22T08:55:13.812Z,23.34
2023-09-22T08:57:45.901Z,23.49
2023-09-22T09:00:21.578Z,23.65
2023-09-22T09:02:49.896Z,23.78
2023-09-22T09:05:31.062Z,23.71
2023-09-22T09:08:20.496Z,24.10
2023-09-22T09:10:50.708Z,24.35
2023-09-22T09:13:25.156Z,24.29
2023-09-22T09:15:55.654Z,24.30
2023-09-22T09:18:24.496Z,24.24
2023-09-22T09:21:16.090Z,24.31
2023-09-22T09:23:57.663Z,24.51
2023-09-22T09:26:28.182Z,24.77
2023-09-22T09:28:55.625Z,24.89
2023-09-22T09:31:43.821Z,24.88
2023-09-22T09:34:11.500Z,25.19
2023-09-22T09:36:40.349Z,25.23
2023-09-22T09:39:07.741Z,25.44
2023-09-22T09:41:35.862Z,25.57
2023-09-22T09:44:05.191Z,25.72
2023-09-22T09:46:33.759Z,25.51
2023-09-22T09:49:04.307Z,25.83
2023-09-22T09:51:38.143Z,25.87
2023-09-22T09:54:08.972Z,26.19
2023-09-22T09:56:40.566Z,26.20
2023-09-22T09:59:09.702Z,26.41
2023-09-22T10:01:36.977Z,26.49
2023-09-22T10:04:06.251Z,26.64
2023-09-22T10:06:38.421Z,27.06
2023-09-22T10:09:12.946Z,27.26
2023-09-22T10:11:40.294Z,26.95
2023-09-22T10:14:07.474Z,27.35
2023-09-22T10:16:34.647Z,27.43
2023-09-22T10:19:03.475Z,28.03
2023-09-22T10:21:30.540Z,28.16
2023-09-22T10:24:29.410Z,28.12
2023-09-22T10:26:59.887Z,28.36
2023-09-22T10:29:52.912Z,28.74
2023-09-22T10:32:26.586Z,28.95
2023-09-22T10:34:57.777Z,29.29
2023-09-22T10:37:30.356Z,29.39
2023-09-22T10:40:13.170Z,28.95
2023-09-22T10:42:41.300Z,29.29
2023-09-22T10:45:08.851Z,29.03
2023-09-22T10:47:41.607Z,29.49
2023-09-22T10:50:20.161Z,29.74
2023-09-22T10:52:51.083Z,30.03
2023-09-22T10:55:28.026Z,29.99
2023-09-22T10:57:59.025Z,30.00
2023-09-22T11:00:26.639Z,30.25
2023-09-22T11:02:54.469Z,30.39
2023-09-22T11:05:22.169Z,30.28
2023-09-22T11:07:49.530Z,30.60
2023-09-22T11:10:21.483Z,31.01
2023-09-22T11:12:50.145Z,31.10
2023-09-22T11:15:17.430Z,31.33
2023-09-22T11:17:47.500Z,32.01
2023-09-22T11:20:19.627Z,32.22
2023-09-22T11:22:49.738Z,32.38
2023-09-22T11:25:17.028Z,32.23
2023-09-22T11:27:51.649Z,32.35
2023-09-22T11:30:26.791Z,32.54
2023-09-22T11:32:54.571Z,33.03
2023-09-22T11:35:41.120Z,33.35
2023-09-22T11:38:29.152Z,33.45
2023-09-22T11:41:10.914Z,33.43
2023-09-22T11:43:45.668Z,33.71
2023-09-22T11:46:17.421Z,34.17
2023-09-22T11:48:53.407Z,34.38
2023-09-22T11:51:21.022Z,34.12
2023-09-22T11:53:50.942Z,34.85
2023-09-22T11:56:18.924Z,34.57
2023-09-22T11:58:45.692Z,34.35
2023-09-22T12:01:12.686Z,34.11
2023-09-22T12:03:39.683Z,34.72
2023-09-22T12:06:06.862Z,35.54
2023-09-22T12:08:34.603Z,36.31
2023-09-22T12:11:02.134Z,36.09
2023-09-22T12:13:29.310Z,37.70
2023-09-22T12:15:56.381Z,37.79
2023-09-22T12:18:23.210Z,37.18
2023-09-22T12:20:50.181Z,37.36
2023-09-22T12:23:17.094Z,37.20
2023-09-22T12:25:43.998Z,36.52
2023-09-22T12:28:11.091Z,35.52
2023-09-22T12:30:37.923Z,34.18
2023-09-22T12:33:05.004Z,32.90
2023-09-22T12:35:31.907Z,32.37
2023-09-22T12:37:58.930Z,31.37
2023-09-22T12:40:27.238Z,30.42
2023-09-22T12:42:54.113Z,29.74
2023-09-22T12:45:21.810Z,28.74
2023-09-22T12:47:49.055Z,29.09
2023-09-22T12:50:16.457Z,28.70
2023-09-22T12:52:43.452Z,28.35
2023-09-22T12:55:11.390Z,28.00
2023-09-22T12:57:39.987Z,27.63
2023-09-22T13:00:08.494Z,27.15
2023-09-22T13:02:35.558Z,27.19
2023-09-22T13:05:03.943Z,27.06
2023-09-22T13:07:30.974Z,26.70
2023-09-22T13:10:00.183Z,27.08
2023-09-22T13:12:27.108Z,26.96
2023-09-22T13:14:55.700Z,27.04
2023-09-22T13:17:22.824Z,27.00
2023-09-22T13:19:50.542Z,26.97
2023-09-22T13:22:18.263Z,27.06
2023-09-22T13:24:45.268Z,27.21
2023-09-22T13:27:12.275Z,26.87
2023-09-22T13:29:39.486Z,26.79
2023-09-22T13:32:08.216Z,26.99
2023-09-22T13:34:35.855Z,27.27
2023-09-22T13:37:04.181Z,26.93
2023-09-22T13:39:31.756Z,26.90
2023-09-22T13:41:59.629Z,27.04
2023-09-22T13:44:27.146Z,26.82
2023-09-22T13:46:54.704Z,27.12
2023-09-22T13:49:22.868Z,26.71
2023-09-22T13:51:50.204Z,26.98
2023-09-22T13:54:17.961Z,26.70
2023-09-22T13:56:44.802Z,26.33
2023-09-22T13:59:12.438Z,26.68
2023-09-22T14:01:39.420Z,25.75
2023-09-22T14:04:06.606Z,26.26
2023-09-22T14:06:33.618Z,26.18
2023-09-22T14:09:00.586Z,25.94
2023-09-22T14:11:27.478Z,25.83
2023-09-22T14:13:55.139Z,25.88
2023-09-22T14:16:22.305Z,25.41
2023-09-22T14:18:49.440Z,25.42
2023-09-22T14:21:16.209Z,25.69
2023-09-22T14:23:43.051Z,25.68
2023-09-22T14:26:15.927Z,25.58
2023-09-22T14:28:44.092Z,25.66
2023-09-22T14:31:18.290Z,25.65
2023-09-22T14:33:45.849Z,25.29
2023-09-22T14:36:13.273Z,25.65
2023-09-22T14:38:40.009Z,24.48
2023-09-22T14:41:08.912Z,25.53
2023-09-22T14:43:36.892Z,25.39
2023-09-22T14:46:06.719Z,25.20
2023-09-22T14:48:34.971Z,24.99
2023-09-22T14:51:08.890Z,25.11
2023-09-22T14:53:36.298Z,25.01
2023-09-22T14:56:04.329Z,24.83
2023-09-22T14:58:32.042Z,23.88
2023-09-22T15:00:59.384Z,24.58
2023-09-22T15:03:26.629Z,24.78
2023-09-22T15:05:54.013Z,24.44
2023-09-22T15:08:22.002Z,24.63
2023-09-22T15:10:53.008Z,24.34
2023-09-22T15:13:20.187Z,24.61
2023-09-22T15:15:47.227Z,24.59
2023-09-22T15:18:14.651Z,24.33
2023-09-22T15:20:41.747Z,24.41
2023-09-22T15:23:08.723Z,24.40
2023-09-22T15:25:35.638Z,24.35
2023-09-22T15:28:02.546Z,24.26
2023-09-22T15:30:29.367Z,24.17
2023-09-22T15:32:56.117Z,23.93
2023-09-22T15:35:22.943Z,24.00
2023-09-22T15:37:53.291Z,23.69
2023-09-22T15:40:20.359Z,23.84
2023-09-22T15:42:47.503Z,23.50
2023-09-22T15:45:14.513Z,23.69
2023-09-22T15:47:41.640Z,23.65
2023-09-22T15:50:11.000Z,23.59
2023-09-22T15:52:38.124Z,23.52
2023-09-22T15:55:05.394Z,22.52
2023-09-22T15:57:32.481Z,22.83
2023-09-22T15:59:59.856Z,23.05
2023-09-22T16:02:27.148Z,23.17
2023-09-22T16:04:54.189Z,23.12
2023-09-22T16:07:21.039Z,23.05
2023-09-22T16:09:47.918Z,22.96
2023-09-22T16:12:14.706Z,22.95
2023-09-22T16:14:41.584Z,22.89
2023-09-22T16:17:08.411Z,22.86
2023-09-22T16:19:35.409Z,22.53
2023-09-22T16:22:02.285Z,22.37
2023-09-22T16:24:30.991Z,22.62
2023-09-22T16:26:58.206Z,22.69
2023-09-22T16:29:25.246Z,22.66
2023-09-22T16:31:52.502Z,22.15
2023-09-22T16:34:19.630Z,22.57
2023-09-22T16:36:47.137Z,22.52
2023-09-22T16:39:14.692Z,22.47
2023-09-22T16:41:44.100Z,22.45
2023-09-22T16:44:11.893Z,22.25
2023-09-22T16:46:39.091Z,22.36
2023-09-22T16:49:06.239Z,22.03
2023-09-22T16:51:33.065Z,22.31
2023-09-22T16:54:00.057Z,22.19
2023-09-22T16:56:29.779Z,22.21
2023-09-22T16:58:56.724Z,22.17
2023-09-22T17:01:23.678Z,21.88
2023-09-22T17:03:50.727Z,21.53
2023-09-22T17:06:17.980Z,21.86
2023-09-22T17:08:45.072Z,21.90
2023-09-22T17:11:13.223Z,21.80
2023-09-22T17:13:40.590Z,21.65
2023-09-22T17:16:08.348Z,21.80
2023-09-22T17:18:35.840Z,21.76
2023-09-22T17:21:04.454Z,21.71
2023-09-22T17:23:33.301Z,21.43
2023-09-22T17:26:00.260Z,21.50
2023-09-22T17:28:28.287Z,21.22
2023-09-22T17:31:03.589Z,21.51
2023-09-22T17:33:31.018Z,21.44
2023-09-22T17:36:01.055Z,21.07
2023-09-22T17:38:28.166Z,21.34
2023-09-22T17:40:55.211Z,20.76
2023-09-22T17:43:22.263Z,21.19
2023-09-22T17:46:01.747Z,21.16
2023-09-22T17:48:29.290Z,21.13
2023-09-22T17:50:56.305Z,20.73
2023-09-22T17:53:24.274Z,21.06
2023-09-22T17:55:51.560Z,21.03
2023-09-22T17:58:18.839Z,20.41
2023-09-22T18:00:45.742Z,20.87
2023-09-22T18:03:12.669Z,20.87
2023-09-22T18:05:39.639Z,20.42
2023-09-22T18:08:06.826Z,19.96
2023-09-22T18:10:33.840Z,20.80
2023-09-22T18:13:00.953Z,20.57
2023-09-22T18:15:28.863Z,20.74
2023-09-22T18:17:57.899Z,20.71
2023-09-22T18:20:25.210Z,20.56
2023-09-22T18:22:53.143Z,20.64
2023-09-22T18:25:20.438Z,20.03
2023-09-22T18:27:48.442Z,20.25
2023-09-22T18:30:15.283Z,20.54
2023-09-22T18:32:42.174Z,20.51
2023-09-22T18:35:10.858Z,20.45
2023-09-22T18:37:39.293Z,20.43
2023-09-22T18:40:08.511Z,20.33
2023-09-22T18:42:35.466Z,20.38
2023-09-22T18:45:02.477Z,20.36
2023-09-22T18:47:29.549Z,20.32
2023-09-22T18:49:58.355Z,20.31
2023-09-22T18:52:27.274Z,19.94
2023-09-22T18:54:55.282Z,20.16
2023-09-22T18:57:30.619Z,19.97
2023-09-22T19:00:00.325Z,19.75
2023-09-22T19:02:28.767Z,19.71
2023-09-22T19:04:56.367Z,20.10
2023-09-22T19:07:25.355Z,20.08
2023-09-22T19:09:53.081Z,20.03
2023-09-22T19:12:20.958Z,19.75
2023-09-22T19:14:48.422Z,19.98
2023-09-22T19:17:21.971Z,19.81
2023-09-22T19:19:53.748Z,19.91
2023-09-22T19:22:21.630Z,19.27
2023-09-22T19:24:50.229Z,19.86
2023-09-22T19:27:19.903Z,19.73
2023-09-22T19:29:46.580Z,19.82
2023-09-22T19:32:14.007Z,19.41
2023-09-22T19:34:41.078Z,19.62
2023-09-22T19:37:08.097Z,19.45
2023-09-22T19:39:38.075Z,19.59
2023-09-22T19:42:05.125Z,19.65
2023-09-22T19:44:32.074Z,19.65
2023-09-22T19:46:59.259Z,19.56
2023-09-22T19:49:26.356Z,19.53
2023-09-22T19:51:53.346Z,19.64
2023-09-22T19:54:20.125Z,19.60
2023-09-22T19:56:47.295Z,19.58
2023-09-22T19:59:14.448Z,19.39
2023-09-22T20:01:41.445Z,19.49
2023-09-22T20:04:08.912Z,19.51
2023-09-22T20:06:36.280Z,19.30
2023-09-22T20:09:09.997Z,19.49
2023-09-22T20:11:38.445Z,19.46
2023-09-22T20:14:06.251Z,18.29
2023-09-22T20:16:35.686Z,19.26
2023-09-22T20:19:04.401Z,18.92
2023-09-22T20:21:31.748Z,19.16
2023-09-22T20:23:59.392Z,19.26
2023-09-22T20:26:27.442Z,19.31
2023-09-22T20:28:54.519Z,19.20
2023-09-22T20:31:21.491Z,19.26
2023-09-22T20:33:48.592Z,19.10
2023-09-22T20:36:16.374Z,18.12
2023-09-22T20:38:46.108Z,19.15
2023-09-22T20:41:13.609Z,19.12
2023-09-22T20:43:42.816Z,19.09
2023-09-22T20:46:13.055Z,19.09
2023-09-22T20:48:40.153Z,18.05
2023-09-22T20:51:13.234Z,19.04
2023-09-22T20:53:45.232Z,18.73
2023-09-22T20:56:12.652Z,19.01
2023-09-22T20:58:40.349Z,18.63
2023-09-22T21:01:08.151Z,18.96
2023-09-22T21:03:35.889Z,18.66
2023-09-22T21:06:03.910Z,18.91
2023-09-22T21:08:30.797Z,18.89
2023-09-22T21:10:58.022Z,18.28
2023-09-22T21:13:25.176Z,18.55
2023-09-22T21:15:54.646Z,18.73
2023-09-22T21:18:21.783Z,18.60
2023-09-22T21:20:48.816Z,18.73
2023-09-22T21:23:16.726Z,18.23
2023-09-22T21:25:48.662Z,18.47
2023-09-22T21:28:16.059Z,18.66
2023-09-22T21:35:27.779Z,18.58
2023-09-22T21:47:22.854Z,18.45
2023-09-22T21:49:52.740Z,18.42
2023-09-22T21:52:19.614Z,18.46
2023-09-22T21:54:47.075Z,18.06
2023-09-22T21:57:18.645Z,18.12
2023-09-22T21:59:45.597Z,18.26
2023-09-22T22:02:12.432Z,18.19
2023-09-22T22:04:43.848Z,18.02
2023-09-22T22:07:13.820Z,18.23
2023-09-22T22:09:40.609Z,18.24
2023-09-22T22:12:07.506Z,18.24
2023-09-22T22:14:34.455Z,18.11
2023-09-22T22:17:01.363Z,18.18
2023-09-22T22:19:28.613Z,17.83
2023-09-22T22:21:57.712Z,17.87
2023-09-22T22:24:25.847Z,17.41
2023-09-22T22:26:53.356Z,18.09
2023-09-22T22:29:21.015Z,18.08
2023-09-22T22:31:49.103Z,18.07
2023-09-22T22:38:55.194Z,17.88
2023-09-22T22:41:24.997Z,17.87
2023-09-22T22:43:51.728Z,17.94
2023-09-22T22:46:19.069Z,17.64
2023-09-22T22:48:46.825Z,17.71
2023-09-22T22:51:14.226Z,17.86
2023-09-22T22:53:42.516Z,17.86
2023-09-22T22:56:09.376Z,17.58
2023-09-22T22:58:37.109Z,17.65
2023-09-22T23:01:04.377Z,17.56
2023-09-22T23:03:31.974Z,17.78
2023-09-22T23:05:59.642Z,17.76
2023-09-22T23:08:26.703Z,17.74
2023-09-22T23:11:07.035Z,17.29
2023-09-22T23:13:47.779Z,17.70
2023-09-22T23:16:15.080Z,17.46
2023-09-22T23:18:46.096Z,17.61
2023-09-22T23:21:15.857Z,17.53
2023-09-22T23:23:44.269Z,16.52
2023-09-22T23:26:11.489Z,17.27
2023-09-22T23:28:41.105Z,17.55
2023-09-22T23:31:07.942Z,17.53
2023-09-22T23:33:35.388Z,17.18
2023-09-22T23:36:04.716Z,16.90
2023-09-22T23:38:31.777Z,17.33
2023-09-22T23:40:58.567Z,17.46
2023-09-22T23:43:28.073Z,17.36
2023-09-22T23:45:58.241Z,17.38
2023-09-22T23:48:25.375Z,17.48
2023-09-22T23:50:53.244Z,17.48
2023-09-22T23:53:23.579Z,17.42
2023-09-22T23:55:50.768Z,17.51
2023-09-22T23:58:17.584Z,17.48
